Time;durP1;ratioP1;P1;durP2;ratioP2;P2;SDS_P1;SDS_P2;PMS_P1;PMS_P2;Temp;Humidity;BMP_temperature;BMP_pressure;BME280_temperature;BME280_humidity;BME280_pressure;Samples;Min_cycle;Max_cycle;Signal;HPM_P1;HPM_P2
2022/10/15 04:57:59;;;;;;;35.83;19.20;;;;;;;8.31;100.00;100580.63;6518098;26;20109;-85
2022/10/15 05:01:06;;;;;;;41.10;17.87;;;;;;;8.34;100.00;100573.09;6552141;27;34909;-90
2022/10/15 05:04:11;;;;;;;36.97;17.85;;;;;;;8.39;100.00;100586.03;6551981;27;34106;-87
2022/10/15 05:07:14;;;;;;;40.60;18.87;;;;;;;8.42;100.00;100576.84;6552222;27;34164;-86
2022/10/15 05:10:17;;;;;;;41.25;18.60;;;;;;;8.48;100.00;100578.88;6551761;27;33410;-86
2022/10/15 05:13:20;;;;;;;36.67;19.12;;;;;;;8.51;100.00;100587.47;6551989;27;33793;-87
2022/10/15 05:16:26;;;;;;;42.58;19.33;;;;;;;8.57;100.00;100592.22;6552379;27;34464;-86
2022/10/15 05:19:29;;;;;;;40.53;18.73;;;;;;;8.61;100.00;100590.03;6551617;27;34922;-86
2022/10/15 05:22:31;;;;;;;35.33;18.05;;;;;;;8.65;100.00;100593.25;6533330;27;32535;-86
2022/10/15 05:25:35;;;;;;;37.47;18.40;;;;;;;8.70;100.00;100597.13;6532124;27;32973;-86
2022/10/15 05:28:38;;;;;;;38.70;19.48;;;;;;;8.73;100.00;100599.50;6532965;27;32378;-86
2022/10/15 05:31:41;;;;;;;37.35;18.05;;;;;;;8.75;100.00;100594.81;6552138;27;34915;-88
2022/10/15 05:34:45;;;;;;;38.42;19.23;;;;;;;8.79;100.00;100595.31;6532518;27;32600;-86
2022/10/15 05:37:48;;;;;;;36.95;19.45;;;;;;;8.81;100.00;100590.66;6551932;27;34070;-86
2022/10/15 05:40:51;;;;;;;36.33;19.00;;;;;;;8.87;100.00;100589.16;6551503;27;34834;-86
2022/10/15 05:43:57;;;;;;;36.50;18.87;;;;;;;8.90;100.00;100587.00;6531497;27;33582;-86
2022/10/15 05:47:00;;;;;;;38.90;19.00;;;;;;;8.95;100.00;100581.12;6551153;27;34761;-86
2022/10/15 05:50:03;;;;;;;43.42;19.70;;;;;;;9.06;100.00;100588.88;6532070;27;32447;-86
2022/10/15 05:53:14;;;;;;;36.75;20.23;;;;;;;9.09;100.00;100588.56;6552009;27;33644;-86
2022/10/15 05:56:18;;;;;;;34.55;19.05;;;;;;;9.11;100.00;100588.41;6551722;27;35153;-86
2022/10/15 05:59:20;;;;;;;42.05;18.58;;;;;;;9.11;100.00;100591.94;6555912;27;34186;-86
2022/10/15 06:02:23;;;;;;;36.88;18.60;;;;;;;9.15;100.00;100603.19;6579171;27;34883;-86
2022/10/15 06:05:26;;;;;;;36.35;18.95;;;;;;;9.19;100.00;100601.88;6577979;27;34872;-86
2022/10/15 06:08:30;;;;;;;34.15;17.98;;;;;;;9.25;100.00;100609.28;6578781;27;33930;-86
2022/10/15 06:11:35;;;;;;;34.08;17.45;;;;;;;9.40;100.00;100609.47;6559551;27;32493;-86
2022/10/15 06:14:37;;;;;;;37.55;18.23;;;;;;;9.53;100.00;100610.69;6579822;27;34191;-87
2022/10/15 06:17:41;;;;;;;39.10;17.37;;;;;;;9.70;100.00;100622.28;6559916;27;33773;-86
2022/10/15 06:20:50;;;;;;;34.58;18.95;;;;;;;9.92;100.00;100619.97;6560826;27;33090;-87
2022/10/15 06:23:53;;;;;;;34.38;19.20;;;;;;;10.08;100.00;100628.00;6579813;27;33918;-87
2022/10/15 06:26:58;;;;;;;33.83;18.23;;;;;;;10.25;100.00;100619.94;6559712;27;33066;-87
2022/10/15 06:30:01;;;;;;;37.13;19.33;;;;;;;10.37;100.00;100626.69;6581760;27;34136;-87
2022/10/15 06:33:03;;;;;;;36.28;18.23;;;;;;;10.49;100.00;100628.00;6584668;27;34713;-87
2022/10/15 06:36:09;;;;;;;37.60;18.65;;;;;;;10.54;100.00;100632.88;6571932;27;32829;-86
2022/10/15 06:39:11;;;;;;;37.22;18.62;;;;;;;10.51;100.00;100634.06;6588023;27;34405;-87
2022/10/15 06:42:16;;;;;;;38.28;18.75;;;;;;;10.51;100.00;100631.38;6563780;27;32984;-87
2022/10/15 06:45:21;;;;;;;35.70;19.35;;;;;;;10.54;100.00;100638.28;6578734;27;32958;-86
2022/10/15 06:48:25;;;;;;;32.97;17.85;;;;;;;10.70;100.00;100638.22;6580856;27;34332;-87
2022/10/15 06:51:27;;;;;;;29.98;17.65;;;;;;;10.79;100.00;100630.97;6581504;27;34340;-88
2022/10/15 06:54:30;;;;;;;35.38;17.80;;;;;;;10.88;100.00;100638.00;6581133;27;34043;-91
2022/10/15 06:57:32;;;;;;;32.90;17.85;;;;;;;11.03;100.00;100649.75;6579903;27;35245;-91
2022/10/15 07:00:35;;;;;;;28.95;16.92;;;;;;;11.19;100.00;100651.53;6579048;27;35139;-91
2022/10/15 07:03:40;;;;;;;29.60;16.08;;;;;;;11.41;100.00;100654.44;6580080;27;33578;-87
2022/10/15 07:06:43;;;;;;;28.50;14.93;;;;;;;11.60;100.00;100655.88;6579726;27;33945;-87
2022/10/15 07:09:46;;;;;;;30.05;14.85;;;;;;;11.68;100.00;100655.84;6580193;27;35365;-87
2022/10/15 07:12:49;;;;;;;25.35;13.75;;;;;;;11.85;100.00;100657.44;6580043;27;34371;-87
2022/10/15 07:15:52;;;;;;;24.85;13.52;;;;;;;11.98;100.00;100663.06;6560003;27;33429;-87
2022/10/15 07:18:55;;;;;;;22.75;12.68;;;;;;;12.16;100.00;100661.91;6559373;27;33274;-87
2022/10/15 07:21:58;;;;;;;21.08;12.05;;;;;;;12.35;100.00;100666.00;6579069;27;33831;-87
2022/10/15 07:25:01;;;;;;;21.00;12.57;;;;;;;12.48;100.00;100664.31;6580811;27;34003;-87
2022/10/15 07:28:04;;;;;;;22.65;13.35;;;;;;;12.49;100.00;100662.50;6598891;27;34150;-87
2022/10/15 07:31:07;;;;;;;26.30;12.37;;;;;;;12.52;100.00;100662.12;6589180;27;35037;-87
2022/10/15 07:34:09;;;;;;;20.60;12.25;;;;;;;12.67;100.00;100652.16;6560814;27;32565;-87
2022/10/15 07:37:12;;;;;;;23.42;12.82;;;;;;;12.78;100.00;100652.72;6580523;27;34093;-87
2022/10/15 07:40:16;;;;;;;22.50;11.50;;;;;;;12.95;99.09;100648.81;6560215;27;32588;-87
2022/10/15 07:43:19;;;;;;;20.17;12.15;;;;;;;13.12;99.37;100647.59;6580855;27;34263;-87
2022/10/15 07:46:22;;;;;;;20.62;11.88;;;;;;;13.29;97.59;100647.44;6580962;27;33735;-87
2022/10/15 07:49:28;;;;;;;26.05;12.48;;;;;;;13.42;95.33;100649.44;6580878;27;34171;-87
2022/10/15 07:52:30;;;;;;;21.37;12.73;;;;;;;13.50;95.96;100649.34;6580740;27;34888;-87
2022/10/15 07:55:34;;;;;;;27.52;14.18;;;;;;;13.70;94.92;100653.09;6580342;27;34821;-87
2022/10/15 07:58:37;;;;;;;26.58;12.68;;;;;;;13.88;93.31;100654.53;6560181;27;32565;-87
